createdAt,value
2023-02-12T00:01:09.648Z,57.97
2023-02-12T00:03:38.157Z,66.50
2023-02-12T00:06:08.764Z,63.13
2023-02-12T00:08:37.473Z,64.90
2023-02-12T00:11:09.642Z,68.70
2023-02-12T00:13:38.332Z,62.27
2023-02-12T00:16:07.748Z,62.60
2023-02-12T00:18:36.191Z,62.83
2023-02-12T00:21:05.064Z,63.70
2023-02-12T00:23:34.918Z,64.37
2023-02-12T00:26:06.632Z,62.03
2023-02-12T00:28:35.125Z,65.63
2023-02-12T00:31:07.020Z,65.43
2023-02-12T00:33:35.512Z,66.50
2023-02-12T00:36:04.135Z,62.37
2023-02-12T00:38:32.703Z,67.03
2023-02-12T00:41:02.719Z,63.37
2023-02-12T00:43:31.308Z,64.20
2023-02-12T00:45:59.827Z,63.77
2023-02-12T00:48:28.288Z,65.60
2023-02-12T00:50:56.670Z,64.70
2023-02-12T00:53:25.385Z,65.90
2023-02-12T00:55:54.059Z,61.37
2023-02-12T00:58:24.301Z,66.47
2023-02-12T01:00:52.937Z,68.30
2023-02-12T01:03:21.625Z,74.73
2023-02-12T01:05:50.023Z,67.57
2023-02-12T01:08:18.655Z,67.97
2023-02-12T01:10:47.047Z,71.70
2023-02-12T01:13:16.189Z,65.57
2023-02-12T01:15:45.999Z,65.97
2023-02-12T01:18:16.228Z,66.90
2023-02-12T01:20:44.634Z,69.07
2023-02-12T01:23:13.029Z,69.83
2023-02-12T01:25:41.447Z,65.33
2023-02-12T01:28:11.738Z,68.07
2023-02-12T01:30:40.708Z,70.80
2023-02-12T01:33:10.465Z,71.23
2023-02-12T01:35:39.459Z,71.33
2023-02-12T01:38:07.915Z,72.97
2023-02-12T01:40:37.377Z,77.23
2023-02-12T01:43:06.187Z,67.37
2023-02-12T01:45:49.418Z,71.80
2023-02-12T01:48:20.469Z,69.53
2023-02-12T01:50:50.471Z,71.60
2023-02-12T01:53:20.947Z,69.37
2023-02-12T01:55:50.286Z,65.63
2023-02-12T01:58:19.453Z,69.17
2023-02-12T02:00:47.903Z,73.03
2023-02-12T02:03:16.383Z,72.37
2023-02-12T02:05:49.264Z,67.57
2023-02-12T02:08:17.705Z,68.20
2023-02-12T02:10:46.119Z,70.03
2023-02-12T02:13:32.138Z,68.13
2023-02-12T02:16:01.920Z,71.43
2023-02-12T02:18:37.143Z,68.23
2023-02-12T02:21:20.676Z,67.13
2023-02-12T02:24:04.442Z,61.73
2023-02-12T02:26:42.411Z,69.67
2023-02-12T02:29:23.061Z,67.83
2023-02-12T02:31:56.410Z,69.07
2023-02-12T02:34:28.486Z,69.83
2023-02-12T02:37:09.335Z,68.60
2023-02-12T02:39:39.352Z,69.07
2023-02-12T02:42:11.908Z,69.63
2023-02-12T02:44:44.405Z,64.27
2023-02-12T02:47:15.906Z,69.57
2023-02-12T02:49:47.325Z,66.80
2023-02-12T02:52:17.209Z,73.10
2023-02-12T02:54:47.647Z,72.63
2023-02-12T02:57:17.802Z,72.93
2023-02-12T02:59:48.410Z,69.77
2023-02-12T03:02:22.288Z,66.87
2023-02-12T03:04:52.990Z,66.97
2023-02-12T03:07:23.578Z,73.10
2023-02-12T03:09:55.461Z,72.20
2023-02-12T03:12:30.663Z,69.30
2023-02-12T03:15:03.588Z,72.00
2023-02-12T03:17:34.727Z,71.13
2023-02-12T03:20:05.183Z,69.83
2023-02-12T03:22:35.775Z,70.20
2023-02-12T03:25:09.708Z,74.13
2023-02-12T03:27:39.715Z,69.17
2023-02-12T03:30:09.510Z,74.97
2023-02-12T03:32:42.643Z,72.33
2023-02-12T03:35:14.568Z,72.27
2023-02-12T03:37:45.903Z,70.77
2023-02-12T03:40:17.571Z,72.97
2023-02-12T03:42:48.832Z,74.97
2023-02-12T03:45:23.825Z,73.30
2023-02-12T03:47:59.205Z,69.43
2023-02-12T03:50:30.261Z,69.57
2023-02-12T03:52:58.676Z,71.50
2023-02-12T03:55:27.342Z,67.87
2023-02-12T03:57:58.945Z,72.43
2023-02-12T04:00:27.476Z,70.67
2023-02-12T04:02:57.293Z,72.30
2023-02-12T04:05:26.710Z,68.23
2023-02-12T04:07:56.130Z,73.93
2023-02-12T04:10:26.162Z,74.20
2023-02-12T04:12:56.214Z,75.87
2023-02-12T04:15:32.228Z,78.00
2023-02-12T04:18:06.595Z,73.57
2023-02-12T04:20:41.429Z,78.00
2023-02-12T04:23:13.505Z,72.37
2023-02-12T04:25:47.630Z,77.63
2023-02-12T04:28:24.261Z,74.37
2023-02-12T04:30:57.705Z,71.90
2023-02-12T04:33:28.313Z,71.90
2023-02-12T04:35:59.677Z,72.47
2023-02-12T04:38:30.548Z,74.93
2023-02-12T04:40:59.269Z,76.60
2023-02-12T04:43:30.977Z,73.57
2023-02-12T04:45:59.694Z,72.23
2023-02-12T04:48:29.537Z,75.77
2023-02-12T04:50:57.976Z,76.40
2023-02-12T04:53:26.367Z,80.23
2023-02-12T04:55:55.625Z,74.67
2023-02-12T04:58:24.310Z,74.80
2023-02-12T05:00:52.709Z,72.47
2023-02-12T05:03:21.081Z,75.53
2023-02-12T05:05:51.213Z,73.50
2023-02-12T05:08:19.596Z,73.60
2023-02-12T05:10:48.023Z,72.40
2023-02-12T05:13:16.717Z,72.50
2023-02-12T05:15:45.191Z,68.90
2023-02-12T05:18:13.665Z,74.40
2023-02-12T05:20:42.080Z,70.87
2023-02-12T05:23:11.825Z,71.83
2023-02-12T05:25:40.206Z,64.00
2023-02-12T05:28:08.657Z,63.17
2023-02-12T05:30:37.117Z,62.50
2023-02-12T05:33:05.524Z,61.93
2023-02-12T05:35:36.357Z,60.27
2023-02-12T05:38:04.780Z,61.60
2023-02-12T05:40:34.653Z,64.87
2023-02-12T05:43:03.071Z,69.00
2023-02-12T05:45:31.541Z,65.30
2023-02-12T05:48:00.045Z,61.27
2023-02-12T05:50:28.495Z,60.90
2023-02-12T05:52:56.928Z,66.07
2023-02-12T05:55:25.301Z,66.57
2023-02-12T05:57:55.074Z,62.27
2023-02-12T06:00:23.983Z,59.77
2023-02-12T06:02:52.388Z,66.20
2023-02-12T06:05:20.879Z,67.97
2023-02-12T06:07:49.310Z,60.07
2023-02-12T06:10:17.792Z,62.63
2023-02-12T06:12:46.191Z,61.60
2023-02-12T06:15:15.949Z,62.87
2023-02-12T06:17:44.340Z,60.63
2023-02-12T06:20:13.093Z,61.37
2023-02-12T06:22:41.511Z,60.87
2023-02-12T06:25:10.154Z,62.37
2023-02-12T06:27:38.566Z,64.83
2023-02-12T06:30:07.559Z,55.80
2023-02-12T06:32:37.385Z,61.00
2023-02-12T06:35:06.158Z,57.20
2023-02-12T06:37:37.038Z,55.40
2023-02-12T06:40:05.742Z,59.93
2023-02-12T06:42:34.157Z,63.40
2023-02-12T06:45:03.634Z,57.37
2023-02-12T06:47:32.291Z,55.43
2023-02-12T06:50:02.088Z,60.23
2023-02-12T06:52:30.505Z,57.27
2023-02-12T06:54:58.922Z,57.47
2023-02-12T06:57:27.356Z,56.23
2023-02-12T06:59:55.741Z,58.23
2023-02-12T07:02:24.613Z,59.10
2023-02-12T07:04:53.132Z,62.13
2023-02-12T07:07:22.913Z,57.63
2023-02-12T07:09:51.295Z,63.40
2023-02-12T07:12:19.717Z,70.37
2023-02-12T07:14:48.101Z,75.27
2023-02-12T07:17:16.488Z,70.03
2023-02-12T07:19:44.931Z,64.10
2023-02-12T07:22:13.350Z,60.50
2023-02-12T07:24:43.589Z,59.30
2023-02-12T07:27:12.262Z,66.57
2023-02-12T07:29:40.677Z,72.63
2023-02-12T07:32:09.138Z,63.93
2023-02-12T07:34:37.978Z,62.13
2023-02-12T07:37:07.001Z,66.47
2023-02-12T07:39:35.400Z,53.07
2023-02-12T07:42:05.258Z,54.33
2023-02-12T07:44:34.392Z,58.37
2023-02-12T07:47:03.692Z,64.20
2023-02-12T07:49:32.104Z,59.50
2023-02-12T07:52:00.502Z,72.93
2023-02-12T07:54:28.875Z,71.83
2023-02-12T07:56:57.356Z,62.63
2023-02-12T07:59:27.118Z,52.87
2023-02-12T08:01:56.330Z,63.83
2023-02-12T08:04:26.808Z,68.37
2023-02-12T08:06:56.505Z,50.20
2023-02-12T08:09:26.135Z,67.90
2023-02-12T08:11:55.051Z,72.57
2023-02-12T08:14:23.814Z,63.43
2023-02-12T08:16:53.705Z,58.90
2023-02-12T08:19:26.191Z,72.27
2023-02-12T08:21:55.671Z,71.63
2023-02-12T08:24:24.574Z,60.60
2023-02-12T08:26:53.607Z,65.07
2023-02-12T08:29:24.169Z,71.13
2023-02-12T08:31:57.814Z,56.70
2023-02-12T08:34:27.279Z,50.60
2023-02-12T08:36:56.303Z,61.47
2023-02-12T08:39:25.415Z,68.83
2023-02-12T08:41:55.797Z,69.87
2023-02-12T08:44:24.479Z,66.20
2023-02-12T08:46:55.637Z,61.67
2023-02-12T08:49:24.920Z,63.60
2023-02-12T08:51:54.642Z,58.37
2023-02-12T08:54:23.949Z,61.70
2023-02-12T08:56:52.542Z,64.83
2023-02-12T08:59:20.927Z,65.20
2023-02-12T09:01:51.847Z,57.80
2023-02-12T09:04:23.040Z,58.70
2023-02-12T09:06:52.027Z,55.80
2023-02-12T09:09:20.810Z,60.47
2023-02-12T09:11:49.433Z,56.00
2023-02-12T09:14:23.782Z,58.57
2023-02-12T09:16:53.409Z,58.30
2023-02-12T09:19:23.245Z,63.43
2023-02-12T09:21:55.786Z,59.07
2023-02-12T09:24:25.204Z,59.90
2023-02-12T09:26:53.599Z,59.50
2023-02-12T09:29:22.055Z,56.57
2023-02-12T09:31:50.579Z,59.80
2023-02-12T09:34:19.111Z,62.03
2023-02-12T09:36:49.208Z,62.63
2023-02-12T09:39:17.595Z,63.30
2023-02-12T09:41:56.999Z,61.17
2023-02-12T09:44:29.933Z,58.70
2023-02-12T09:47:01.534Z,58.17
2023-02-12T09:49:42.900Z,60.53
2023-02-12T09:52:16.243Z,60.03
2023-02-12T09:54:45.424Z,60.80
2023-02-12T09:57:19.784Z,63.53
2023-02-12T09:59:50.027Z,63.10
2023-02-12T10:02:19.766Z,60.63
2023-02-12T10:05:00.577Z,58.80
2023-02-12T10:07:36.842Z,35.90
2023-02-12T10:10:12.617Z,55.83
2023-02-12T10:12:41.829Z,62.07
2023-02-12T10:15:16.744Z,63.77
2023-02-12T10:17:49.026Z,62.10
2023-02-12T10:20:28.310Z,65.03
2023-02-12T10:23:02.014Z,57.87
2023-02-12T10:25:32.241Z,57.13
2023-02-12T10:28:02.756Z,40.47
2023-02-12T10:30:37.249Z,49.17
2023-02-12T10:33:07.596Z,51.93
2023-02-12T10:35:36.875Z,53.50
2023-02-12T10:38:09.139Z,57.13
2023-02-12T10:40:39.338Z,53.47
2023-02-12T10:43:09.788Z,51.50
2023-02-12T10:45:40.148Z,50.50
2023-02-12T10:48:10.668Z,50.90
2023-02-12T10:50:43.459Z,35.80
2023-02-12T10:53:17.576Z,42.40
2023-02-12T10:55:46.025Z,45.73
2023-02-12T10:58:24.365Z,52.60
2023-02-12T11:01:00.032Z,52.23
2023-02-12T11:03:30.835Z,48.40
2023-02-12T11:05:59.226Z,50.77
2023-02-12T11:08:36.821Z,48.53
2023-02-12T11:11:07.033Z,34.87
2023-02-12T11:13:35.598Z,44.67
2023-02-12T11:16:04.327Z,44.27
2023-02-12T11:18:33.785Z,46.13
2023-02-12T11:21:03.516Z,46.33
2023-02-12T11:23:32.925Z,47.73
2023-02-12T11:26:03.915Z,44.67
2023-02-12T11:28:32.948Z,48.70
2023-02-12T11:31:02.652Z,30.90
2023-02-12T11:33:35.756Z,39.47
2023-02-12T11:36:07.502Z,41.83
2023-02-12T11:38:38.405Z,41.30
2023-02-12T11:41:23.352Z,46.60
2023-02-12T11:43:52.930Z,47.23
2023-02-12T11:46:22.389Z,45.37
2023-02-12T11:48:51.246Z,31.53
2023-02-12T11:51:21.341Z,36.60
2023-02-12T11:53:51.557Z,43.07
2023-02-12T11:56:21.819Z,49.20
2023-02-12T11:58:50.968Z,52.33
2023-02-12T12:01:22.526Z,46.37
2023-02-12T12:03:54.018Z,46.10
2023-02-12T12:06:28.134Z,33.70
2023-02-12T12:09:00.387Z,42.23
2023-02-12T12:11:33.454Z,40.97
2023-02-12T12:14:05.245Z,44.10
2023-02-12T12:16:54.414Z,45.83
2023-02-12T12:19:43.436Z,45.37
2023-02-12T12:22:15.774Z,31.47
2023-02-12T12:24:46.624Z,37.20
2023-02-12T12:27:41.697Z,48.70
2023-02-12T12:30:14.127Z,52.57
2023-02-12T12:32:44.117Z,47.13
2023-02-12T12:35:13.133Z,47.93
2023-02-12T12:37:46.573Z,35.87
2023-02-12T12:40:28.562Z,38.97
2023-02-12T12:43:13.228Z,46.50
2023-02-12T12:46:05.793Z,50.63
2023-02-12T12:48:42.285Z,48.87
2023-02-12T12:51:17.355Z,51.63
2023-02-12T12:53:52.721Z,39.17
2023-02-12T12:56:29.714Z,38.93
2023-02-12T12:59:05.179Z,49.30
2023-02-12T13:01:45.503Z,49.73
2023-02-12T13:04:31.842Z,50.13
2023-02-12T13:07:06.089Z,51.57
2023-02-12T13:09:49.043Z,39.50
2023-02-12T13:12:32.579Z,42.53
2023-02-12T13:15:05.533Z,53.20
2023-02-12T13:17:36.887Z,55.63
2023-02-12T13:20:11.512Z,56.07
2023-02-12T13:22:42.362Z,49.20
2023-02-12T13:25:18.822Z,34.73
2023-02-12T13:27:49.419Z,46.00
2023-02-12T13:30:22.548Z,48.23
2023-02-12T13:32:53.537Z,53.17
2023-02-12T13:35:23.339Z,53.50
2023-02-12T13:37:54.889Z,41.60
2023-02-12T13:40:24.364Z,39.63
2023-02-12T13:42:55.376Z,49.33
2023-02-12T13:45:32.235Z,51.93
2023-02-12T13:48:07.292Z,53.33
2023-02-12T13:50:42.762Z,36.97
2023-02-12T13:53:16.954Z,38.53
2023-02-12T13:55:51.293Z,44.30
2023-02-12T13:58:37.558Z,48.00
2023-02-12T14:01:08.812Z,48.07
2023-02-12T14:03:37.989Z,39.33
2023-02-12T14:06:11.515Z,33.67
2023-02-12T14:08:40.994Z,40.50
2023-02-12T14:11:10.407Z,36.83
2023-02-12T14:13:47.401Z,39.93
2023-02-12T14:16:38.706Z,34.20
2023-02-12T14:19:25.887Z,21.57
2023-02-12T14:21:54.295Z,29.27
2023-02-12T14:24:52.962Z,26.97
2023-02-12T14:27:39.274Z,25.93
2023-02-12T14:30:25.881Z,22.93
2023-02-12T14:33:09.119Z,19.53
2023-02-12T14:35:40.925Z,24.50
2023-02-12T14:38:24.146Z,25.37
2023-02-12T14:40:53.623Z,24.33
2023-02-12T14:43:56.878Z,22.43
2023-02-12T14:46:43.851Z,20.13
2023-02-12T14:49:20.072Z,15.73
2023-02-12T14:51:54.019Z,23.37
2023-02-12T14:54:27.774Z,26.63
2023-02-12T14:56:56.668Z,23.37
2023-02-12T14:59:26.736Z,27.67
2023-02-12T15:01:55.646Z,20.63
2023-02-12T15:04:27.316Z,21.17
2023-02-12T15:06:59.068Z,25.63
2023-02-12T15:09:31.466Z,25.33
2023-02-12T15:12:06.813Z,30.67
2023-02-12T15:14:37.995Z,22.93
2023-02-12T15:17:10.136Z,24.67
2023-02-12T15:19:42.603Z,26.43
2023-02-12T15:22:22.289Z,29.57
2023-02-12T15:24:51.222Z,34.53
2023-02-12T15:27:20.660Z,22.90
2023-02-12T15:29:50.164Z,28.43
2023-02-12T15:32:21.495Z,26.17
2023-02-12T15:34:51.018Z,30.20
2023-02-12T15:37:23.208Z,33.13
2023-02-12T15:39:53.517Z,22.37
2023-02-12T15:42:26.014Z,22.17
2023-02-12T15:44:54.410Z,29.53
2023-02-12T15:47:26.258Z,30.27
2023-02-12T15:50:00.964Z,28.93
2023-02-12T15:52:34.800Z,26.20
2023-02-12T15:55:05.049Z,21.07
2023-02-12T15:57:34.258Z,25.37
2023-02-12T16:00:06.468Z,31.17
2023-02-12T16:02:34.866Z,26.93
2023-02-12T16:05:04.247Z,28.13
2023-02-12T16:07:37.920Z,25.00
2023-02-12T16:10:07.128Z,23.23
2023-02-12T16:12:37.638Z,27.77
2023-02-12T16:15:06.594Z,28.17
2023-02-12T16:17:36.609Z,25.93
2023-02-12T16:20:09.744Z,25.33
2023-02-12T16:22:40.295Z,22.53
2023-02-12T16:25:16.806Z,27.37
2023-02-12T16:27:53.196Z,27.53
2023-02-12T16:30:25.870Z,28.23
2023-02-12T16:32:54.413Z,26.67
2023-02-12T16:35:27.993Z,26.17
2023-02-12T16:37:59.523Z,27.63
2023-02-12T16:40:29.119Z,25.17
2023-02-12T16:43:01.908Z,29.00
2023-02-12T16:45:37.663Z,31.53
2023-02-12T16:48:09.982Z,30.97
2023-02-12T16:50:40.793Z,28.17
2023-02-12T16:53:24.536Z,29.90
2023-02-12T16:55:53.033Z,30.13
2023-02-12T16:58:21.438Z,30.43
2023-02-12T17:00:49.913Z,33.03
2023-02-12T17:03:19.190Z,33.20
2023-02-12T17:05:49.375Z,27.87
2023-02-12T17:08:20.086Z,22.63
2023-02-12T17:10:49.241Z,18.47
2023-02-12T17:13:17.792Z,13.90
2023-02-12T17:15:47.888Z,13.30
2023-02-12T17:18:18.112Z,16.13
2023-02-12T17:20:49.654Z,17.17
2023-02-12T17:23:19.448Z,20.20
2023-02-12T17:25:47.559Z,20.70
2023-02-12T17:28:16.070Z,24.37
2023-02-12T17:30:44.295Z,23.83
2023-02-12T17:33:12.820Z,24.93
2023-02-12T17:35:41.765Z,25.00
2023-02-12T17:38:10.188Z,24.27
2023-02-12T17:40:40.399Z,26.30
2023-02-12T17:43:09.089Z,26.93
2023-02-12T17:45:37.488Z,29.67
2023-02-12T17:48:06.242Z,33.40
2023-02-12T17:50:34.659Z,31.40
2023-02-12T17:53:03.139Z,29.70
2023-02-12T17:55:31.527Z,29.80
2023-02-12T17:58:03.481Z,35.30
2023-02-12T18:00:31.912Z,33.50
2023-02-12T18:03:00.331Z,32.80
2023-02-12T18:05:28.759Z,35.20
2023-02-12T18:07:57.254Z,31.50
2023-02-12T18:10:25.668Z,34.77
2023-02-12T18:12:54.102Z,38.43
2023-02-12T18:15:23.868Z,35.10
2023-02-12T18:17:52.284Z,39.50
2023-02-12T18:20:21.196Z,36.03
2023-02-12T18:22:50.124Z,42.37
2023-02-12T18:25:19.032Z,37.97
2023-02-12T18:27:47.500Z,42.23
2023-02-12T18:30:16.060Z,42.53
2023-02-12T18:32:45.834Z,41.13
2023-02-12T18:35:14.739Z,36.47
2023-02-12T18:37:43.547Z,34.70
2023-02-12T18:40:12.439Z,34.27
2023-02-12T18:42:40.946Z,35.67
2023-02-12T18:45:09.773Z,37.10
2023-02-12T18:47:38.235Z,35.53
2023-02-12T18:50:08.932Z,36.67
2023-02-12T18:52:37.488Z,37.53
2023-02-12T18:55:06.273Z,37.63
2023-02-12T18:57:34.697Z,35.30
2023-02-12T19:00:04.460Z,32.07
2023-02-12T19:02:32.967Z,32.57
2023-02-12T19:05:01.478Z,33.57
2023-02-12T19:07:31.262Z,31.17
2023-02-12T19:09:59.650Z,30.83
2023-02-12T19:12:28.165Z,32.00
2023-02-12T19:14:56.593Z,34.20
2023-02-12T19:17:24.994Z,30.23
2023-02-12T19:19:53.814Z,30.30
2023-02-12T19:22:22.194Z,32.00
2023-02-12T19:24:52.947Z,37.53
2023-02-12T19:27:21.405Z,35.83
2023-02-12T19:29:49.811Z,31.70
2023-02-12T19:32:18.236Z,36.03
2023-02-12T19:34:47.079Z,30.03
2023-02-12T19:37:15.480Z,31.23
2023-02-12T19:39:44.048Z,29.97
2023-02-12T19:42:15.004Z,31.30
2023-02-12T19:44:43.461Z,31.73
2023-02-12T19:47:11.872Z,34.47
2023-02-12T19:49:41.429Z,32.47
2023-02-12T19:52:10.421Z,33.27
2023-02-12T19:54:38.827Z,28.87
2023-02-12T19:57:09.342Z,36.50
2023-02-12T19:59:40.877Z,33.97
2023-02-12T20:02:09.365Z,33.07
2023-02-12T20:04:37.791Z,31.77
2023-02-12T20:07:06.438Z,34.73
2023-02-12T20:09:34.849Z,33.40
2023-02-12T20:12:03.578Z,34.30
2023-02-12T20:14:31.970Z,33.13
2023-02-12T20:17:01.728Z,39.37
2023-02-12T20:19:31.546Z,33.27
2023-02-12T20:22:01.631Z,34.10
2023-02-12T20:24:30.704Z,34.43
2023-02-12T20:27:00.277Z,35.63
2023-02-12T20:29:28.932Z,34.33
2023-02-12T20:31:57.445Z,40.50
2023-02-12T20:34:28.333Z,37.87
2023-02-12T20:36:56.747Z,37.00
2023-02-12T20:39:25.440Z,35.80
2023-02-12T20:41:54.034Z,38.77
2023-02-12T20:44:23.004Z,41.03
2023-02-12T20:46:55.906Z,42.50
2023-02-12T20:49:27.624Z,41.07
2023-02-12T20:51:56.326Z,41.37
2023-02-12T20:54:24.938Z,36.87
2023-02-12T20:56:53.367Z,40.93
2023-02-12T20:59:21.761Z,40.00
2023-02-12T21:01:50.546Z,38.03
2023-02-12T21:04:20.105Z,39.97
2023-02-12T21:06:50.137Z,43.80
2023-02-12T21:09:19.903Z,39.53
2023-02-12T21:11:48.639Z,46.00
2023-02-12T21:14:24.896Z,46.67
2023-02-12T21:16:54.272Z,40.30
2023-02-12T21:19:22.771Z,42.23
2023-02-12T21:21:52.790Z,41.83
2023-02-12T21:24:22.264Z,44.57
2023-02-12T21:26:50.649Z,41.33
2023-02-12T21:29:19.360Z,42.37
2023-02-12T21:31:48.820Z,46.83
2023-02-12T21:34:17.895Z,50.57
2023-02-12T21:36:47.126Z,47.53
2023-02-12T21:39:24.306Z,49.27
2023-02-12T21:41:53.593Z,46.33
2023-02-12T21:44:22.343Z,48.43
2023-02-12T21:46:50.786Z,46.73
2023-02-12T21:49:24.896Z,48.20
2023-02-12T21:51:54.155Z,49.83
2023-02-12T21:54:24.146Z,48.80
2023-02-12T21:56:52.549Z,46.87
2023-02-12T21:59:21.102Z,43.17
2023-02-12T22:01:50.885Z,43.03
2023-02-12T22:04:22.592Z,44.80
2023-02-12T22:06:52.604Z,41.43
2023-02-12T22:09:21.970Z,39.90
2023-02-12T22:11:53.095Z,40.03
2023-02-12T22:14:21.856Z,40.57
2023-02-12T22:16:50.366Z,39.63
2023-02-12T22:19:19.243Z,37.73
2023-02-12T22:21:47.667Z,40.73
2023-02-12T22:24:17.560Z,42.33
2023-02-12T22:26:46.441Z,39.40
2023-02-12T22:29:17.140Z,36.07
2023-02-12T22:31:46.512Z,34.97
2023-02-12T22:34:16.225Z,38.30
2023-02-12T22:36:46.169Z,36.10
2023-02-12T22:39:15.451Z,39.03
2023-02-12T22:41:43.900Z,33.33
2023-02-12T22:44:13.144Z,34.43
2023-02-12T22:46:43.060Z,34.17
2023-02-12T22:49:11.559Z,33.27
2023-02-12T22:51:40.192Z,34.27
2023-02-12T22:54:08.734Z,33.00
2023-02-12T22:56:37.162Z,32.73
2023-02-12T22:59:05.643Z,32.60
2023-02-12T23:01:34.233Z,35.83
2023-02-12T23:04:04.128Z,34.00
2023-02-12T23:06:33.105Z,30.87
2023-02-12T23:09:02.997Z,33.33
2023-02-12T23:11:32.254Z,36.70
2023-02-12T23:14:00.845Z,33.63
2023-02-12T23:16:29.475Z,32.27
2023-02-12T23:18:57.952Z,32.23
2023-02-12T23:21:28.112Z,30.57
2023-02-12T23:23:56.508Z,31.03
2023-02-12T23:26:25.520Z,28.07
2023-02-12T23:28:53.906Z,29.37
2023-02-12T23:31:22.437Z,30.37
2023-02-12T23:33:50.884Z,31.33
2023-02-12T23:36:19.270Z,30.90
2023-02-12T23:38:49.056Z,31.87
2023-02-12T23:41:17.512Z,30.03
2023-02-12T23:43:45.922Z,31.47
2023-02-12T23:46:14.385Z,29.27
2023-02-12T23:48:44.502Z,31.50
2023-02-12T23:51:13.191Z,39.57
2023-02-12T23:53:41.546Z,38.13
2023-02-12T23:56:11.335Z,34.53
2023-02-12T23:58:39.752Z,37.27
